sensor_id;sensor_type;location;lat;lon;timestamp;P1;durP1;ratioP1;P2;durP2;ratioP2
9821;SDS011;4950;46.042;14.472;2024-02-21T00:02:21;16.50;;;10.00;;
9821;SDS011;4950;46.042;14.472;2024-02-21T00:04:48;16.35;;;10.68;;
9821;SDS011;4950;46.042;14.472;2024-02-21T00:07:15;15.25;;;10.27;;
9821;SDS011;4950;46.042;14.472;2024-02-21T00:09:41;17.92;;;11.18;;
9821;SDS011;4950;46.042;14.472;2024-02-21T00:12:08;18.40;;;10.85;;
9821;SDS011;4950;46.042;14.472;2024-02-21T00:14:35;19.33;;;11.88;;
9821;SDS011;4950;46.042;14.472;2024-02-21T00:17:02;23.00;;;12.48;;
9821;SDS011;4950;46.042;14.472;2024-02-21T00:19:30;18.92;;;11.32;;
9821;SDS011;4950;46.042;14.472;2024-02-21T00:21:56;22.17;;;12.73;;
9821;SDS011;4950;46.042;14.472;2024-02-21T00:24:23;21.40;;;11.70;;
9821;SDS011;4950;46.042;14.472;2024-02-21T00:26:50;18.23;;;12.27;;
9821;SDS011;4950;46.042;14.472;2024-02-21T00:29:16;20.05;;;12.25;;
9821;SDS011;4950;46.042;14.472;2024-02-21T00:31:43;19.55;;;12.05;;
9821;SDS011;4950;46.042;14.472;2024-02-21T00:34:10;18.55;;;12.80;;
9821;SDS011;4950;46.042;14.472;2024-02-21T00:36:39;16.13;;;9.85;;
9821;SDS011;4950;46.042;14.472;2024-02-21T00:39:05;17.80;;;11.32;;
9821;SDS011;4950;46.042;14.472;2024-02-21T00:41:32;15.65;;;10.02;;
9821;SDS011;4950;46.042;14.472;2024-02-21T00:43:59;15.70;;;10.63;;
9821;SDS011;4950;46.042;14.472;2024-02-21T00:46:25;17.50;;;10.32;;
9821;SDS011;4950;46.042;14.472;2024-02-21T00:48:52;15.55;;;9.82;;
9821;SDS011;4950;46.042;14.472;2024-02-21T00:51:19;15.77;;;9.60;;
9821;SDS011;4950;46.042;14.472;2024-02-21T00:53:47;17.73;;;10.52;;
9821;SDS011;4950;46.042;14.472;2024-02-21T00:56:13;14.98;;;9.60;;
9821;SDS011;4950;46.042;14.472;2024-02-21T00:58:40;16.63;;;10.52;;
9821;SDS011;4950;46.042;14.472;2024-02-21T01:01:07;16.95;;;9.57;;
9821;SDS011;4950;46.042;14.472;2024-02-21T01:03:33;15.50;;;10.40;;
9821;SDS011;4950;46.042;14.472;2024-02-21T01:06:00;18.42;;;11.15;;
9821;SDS011;4950;46.042;14.472;2024-02-21T01:08:27;15.18;;;9.82;;
9821;SDS011;4950;46.042;14.472;2024-02-21T01:10:55;13.50;;;9.75;;
9821;SDS011;4950;46.042;14.472;2024-02-21T01:13:21;13.18;;;8.85;;
9821;SDS011;4950;46.042;14.472;2024-02-21T01:15:48;16.38;;;9.73;;
9821;SDS011;4950;46.042;14.472;2024-02-21T01:18:15;15.73;;;9.52;;
9821;SDS011;4950;46.042;14.472;2024-02-21T01:20:41;16.02;;;9.52;;
9821;SDS011;4950;46.042;14.472;2024-02-21T01:23:08;15.23;;;9.77;;
9821;SDS011;4950;46.042;14.472;2024-02-21T01:25:35;14.18;;;9.25;;
9821;SDS011;4950;46.042;14.472;2024-02-21T01:28:03;15.23;;;10.00;;
9821;SDS011;4950;46.042;14.472;2024-02-21T01:30:30;15.70;;;10.80;;
9821;SDS011;4950;46.042;14.472;2024-02-21T01:32:57;15.55;;;9.57;;
9821;SDS011;4950;46.042;14.472;2024-02-21T01:35:23;15.75;;;10.68;;
9821;SDS011;4950;46.042;14.472;2024-02-21T01:37:50;17.42;;;10.20;;
9821;SDS011;4950;46.042;14.472;2024-02-21T01:40:17;16.80;;;9.85;;
9821;SDS011;4950;46.042;14.472;2024-02-21T01:42:44;14.93;;;9.98;;
9821;SDS011;4950;46.042;14.472;2024-02-21T01:45:14;14.32;;;9.23;;
9821;SDS011;4950;46.042;14.472;2024-02-21T01:47:41;15.00;;;9.20;;
9821;SDS011;4950;46.042;14.472;2024-02-21T01:50:08;15.20;;;9.77;;
9821;SDS011;4950;46.042;14.472;2024-02-21T01:52:35;16.17;;;9.48;;
9821;SDS011;4950;46.042;14.472;2024-02-21T01:55:02;18.17;;;10.15;;
9821;SDS011;4950;46.042;14.472;2024-02-21T01:57:30;17.77;;;9.63;;
9821;SDS011;4950;46.042;14.472;2024-02-21T01:59:57;13.88;;;9.50;;
9821;SDS011;4950;46.042;14.472;2024-02-21T02:02:25;14.73;;;9.90;;
9821;SDS011;4950;46.042;14.472;2024-02-21T02:04:52;14.35;;;9.63;;
9821;SDS011;4950;46.042;14.472;2024-02-21T02:07:19;15.65;;;10.40;;
9821;SDS011;4950;46.042;14.472;2024-02-21T02:09:45;15.85;;;9.93;;
9821;SDS011;4950;46.042;14.472;2024-02-21T02:12:12;15.63;;;8.80;;
9821;SDS011;4950;46.042;14.472;2024-02-21T02:14:39;13.45;;;9.70;;
9821;SDS011;4950;46.042;14.472;2024-02-21T02:17:05;14.68;;;8.90;;
9821;SDS011;4950;46.042;14.472;2024-02-21T02:19:35;13.30;;;9.20;;
9821;SDS011;4950;46.042;14.472;2024-02-21T02:22:05;16.38;;;10.18;;
9821;SDS011;4950;46.042;14.472;2024-02-21T02:24:37;13.95;;;9.70;;
9821;SDS011;4950;46.042;14.472;2024-02-21T02:27:04;15.95;;;9.80;;
9821;SDS011;4950;46.042;14.472;2024-02-21T02:29:31;12.63;;;8.82;;
9821;SDS011;4950;46.042;14.472;2024-02-21T02:31:58;16.90;;;9.68;;
9821;SDS011;4950;46.042;14.472;2024-02-21T02:34:25;15.80;;;9.63;;
9821;SDS011;4950;46.042;14.472;2024-02-21T02:36:51;14.13;;;9.75;;
9821;SDS011;4950;46.042;14.472;2024-02-21T02:39:19;15.50;;;10.65;;
9821;SDS011;4950;46.042;14.472;2024-02-21T02:41:47;16.08;;;10.40;;
9821;SDS011;4950;46.042;14.472;2024-02-21T02:44:14;14.20;;;10.27;;
9821;SDS011;4950;46.042;14.472;2024-02-21T02:46:41;16.58;;;9.80;;
9821;SDS011;4950;46.042;14.472;2024-02-21T02:49:08;17.95;;;9.70;;
9821;SDS011;4950;46.042;14.472;2024-02-21T02:51:35;15.77;;;10.10;;
9821;SDS011;4950;46.042;14.472;2024-02-21T02:54:02;15.35;;;10.15;;
9821;SDS011;4950;46.042;14.472;2024-02-21T02:56:28;17.10;;;10.68;;
9821;SDS011;4950;46.042;14.472;2024-02-21T02:58:56;17.52;;;10.60;;
9821;SDS011;4950;46.042;14.472;2024-02-21T03:01:23;18.15;;;10.82;;
9821;SDS011;4950;46.042;14.472;2024-02-21T03:03:50;13.75;;;9.70;;
9821;SDS011;4950;46.042;14.472;2024-02-21T03:06:17;14.05;;;10.55;;
9821;SDS011;4950;46.042;14.472;2024-02-21T03:08:43;18.25;;;10.60;;
9821;SDS011;4950;46.042;14.472;2024-02-21T03:11:11;16.10;;;10.10;;
9821;SDS011;4950;46.042;14.472;2024-02-21T03:13:37;16.65;;;10.18;;
9821;SDS011;4950;46.042;14.472;2024-02-21T03:16:06;14.88;;;9.75;;
9821;SDS011;4950;46.042;14.472;2024-02-21T03:18:33;16.25;;;10.02;;
9821;SDS011;4950;46.042;14.472;2024-02-21T03:20:59;13.18;;;9.60;;
9821;SDS011;4950;46.042;14.472;2024-02-21T03:23:26;12.70;;;7.32;;
9821;SDS011;4950;46.042;14.472;2024-02-21T03:25:53;11.02;;;6.80;;
9821;SDS011;4950;46.042;14.472;2024-02-21T03:28:19;9.40;;;6.65;;
9821;SDS011;4950;46.042;14.472;2024-02-21T03:30:46;7.93;;;5.18;;
9821;SDS011;4950;46.042;14.472;2024-02-21T03:33:14;8.13;;;5.65;;
9821;SDS011;4950;46.042;14.472;2024-02-21T03:35:41;9.45;;;5.20;;
9821;SDS011;4950;46.042;14.472;2024-02-21T03:38:07;9.60;;;5.40;;
9821;SDS011;4950;46.042;14.472;2024-02-21T03:40:34;8.38;;;5.47;;
9821;SDS011;4950;46.042;14.472;2024-02-21T03:43:01;9.73;;;5.30;;
9821;SDS011;4950;46.042;14.472;2024-02-21T03:45:27;9.00;;;4.90;;
9821;SDS011;4950;46.042;14.472;2024-02-21T03:47:54;9.43;;;4.70;;
9821;SDS011;4950;46.042;14.472;2024-02-21T03:50:22;8.77;;;5.30;;
9821;SDS011;4950;46.042;14.472;2024-02-21T03:55:17;10.18;;;5.30;;
9821;SDS011;4950;46.042;14.472;2024-02-21T03:57:44;9.70;;;5.32;;
9821;SDS011;4950;46.042;14.472;2024-02-21T04:00:11;9.63;;;6.45;;
9821;SDS011;4950;46.042;14.472;2024-02-21T04:02:38;10.85;;;6.75;;
9821;SDS011;4950;46.042;14.472;2024-02-21T04:05:04;11.95;;;6.85;;
9821;SDS011;4950;46.042;14.472;2024-02-21T04:07:37;12.32;;;8.27;;
9821;SDS011;4950;46.042;14.472;2024-02-21T04:10:04;15.18;;;8.38;;
9821;SDS011;4950;46.042;14.472;2024-02-21T04:12:31;12.65;;;8.32;;
9821;SDS011;4950;46.042;14.472;2024-02-21T04:14:58;12.57;;;7.65;;
9821;SDS011;4950;46.042;14.472;2024-02-21T04:17:24;11.60;;;7.35;;
9821;SDS011;4950;46.042;14.472;2024-02-21T04:19:52;13.27;;;8.60;;
9821;SDS011;4950;46.042;14.472;2024-02-21T04:22:30;13.25;;;9.13;;
9821;SDS011;4950;46.042;14.472;2024-02-21T04:24:58;17.98;;;9.85;;
9821;SDS011;4950;46.042;14.472;2024-02-21T04:27:25;13.73;;;8.98;;
9821;SDS011;4950;46.042;14.472;2024-02-21T04:29:52;13.80;;;8.85;;
9821;SDS011;4950;46.042;14.472;2024-02-21T04:32:19;12.77;;;8.88;;
9821;SDS011;4950;46.042;14.472;2024-02-21T04:34:46;15.13;;;9.35;;
9821;SDS011;4950;46.042;14.472;2024-02-21T04:37:13;14.82;;;9.40;;
9821;SDS011;4950;46.042;14.472;2024-02-21T04:39:39;14.27;;;10.45;;
9821;SDS011;4950;46.042;14.472;2024-02-21T04:42:07;15.05;;;10.00;;
9821;SDS011;4950;46.042;14.472;2024-02-21T04:44:34;12.57;;;8.90;;
9821;SDS011;4950;46.042;14.472;2024-02-21T04:47:01;13.45;;;9.27;;
9821;SDS011;4950;46.042;14.472;2024-02-21T04:49:28;12.68;;;9.10;;
9821;SDS011;4950;46.042;14.472;2024-02-21T04:51:55;12.88;;;8.48;;
9821;SDS011;4950;46.042;14.472;2024-02-21T04:54:22;14.93;;;9.40;;
9821;SDS011;4950;46.042;14.472;2024-02-21T04:56:48;15.25;;;9.60;;
9821;SDS011;4950;46.042;14.472;2024-02-21T04:59:16;13.20;;;8.82;;
9821;SDS011;4950;46.042;14.472;2024-02-21T05:01:43;18.05;;;10.68;;
9821;SDS011;4950;46.042;14.472;2024-02-21T05:04:10;18.77;;;11.65;;
9821;SDS011;4950;46.042;14.472;2024-02-21T05:06:37;18.08;;;10.55;;
9821;SDS011;4950;46.042;14.472;2024-02-21T05:09:04;15.90;;;10.02;;
9821;SDS011;4950;46.042;14.472;2024-02-21T05:11:31;21.15;;;13.32;;
9821;SDS011;4950;46.042;14.472;2024-02-21T05:13:58;21.92;;;13.02;;
9821;SDS011;4950;46.042;14.472;2024-02-21T05:16:26;18.52;;;11.73;;
9821;SDS011;4950;46.042;14.472;2024-02-21T05:18:53;22.75;;;11.18;;
9821;SDS011;4950;46.042;14.472;2024-02-21T05:21:21;14.55;;;10.10;;
9821;SDS011;4950;46.042;14.472;2024-02-21T05:23:48;16.13;;;10.00;;
9821;SDS011;4950;46.042;14.472;2024-02-21T05:26:19;15.25;;;10.35;;
9821;SDS011;4950;46.042;14.472;2024-02-21T05:28:47;14.65;;;9.50;;
9821;SDS011;4950;46.042;14.472;2024-02-21T05:31:13;15.77;;;10.18;;
9821;SDS011;4950;46.042;14.472;2024-02-21T05:33:42;17.17;;;8.90;;
9821;SDS011;4950;46.042;14.472;2024-02-21T05:36:08;14.63;;;9.20;;
9821;SDS011;4950;46.042;14.472;2024-02-21T05:38:35;15.57;;;10.15;;
9821;SDS011;4950;46.042;14.472;2024-02-21T05:41:02;13.82;;;8.98;;
9821;SDS011;4950;46.042;14.472;2024-02-21T05:43:29;16.67;;;9.90;;
9821;SDS011;4950;46.042;14.472;2024-02-21T05:45:56;18.30;;;10.35;;
9821;SDS011;4950;46.042;14.472;2024-02-21T05:48:23;17.33;;;10.32;;
9821;SDS011;4950;46.042;14.472;2024-02-21T05:50:51;19.40;;;13.80;;
9821;SDS011;4950;46.042;14.472;2024-02-21T05:53:18;17.83;;;12.65;;
9821;SDS011;4950;46.042;14.472;2024-02-21T05:55:45;15.70;;;10.55;;
9821;SDS011;4950;46.042;14.472;2024-02-21T05:58:11;18.58;;;11.57;;
9821;SDS011;4950;46.042;14.472;2024-02-21T06:00:38;14.90;;;9.05;;
9821;SDS011;4950;46.042;14.472;2024-02-21T06:03:05;15.43;;;8.63;;
9821;SDS011;4950;46.042;14.472;2024-02-21T06:05:36;16.00;;;7.95;;
9821;SDS011;4950;46.042;14.472;2024-02-21T06:08:05;13.43;;;7.95;;
9821;SDS011;4950;46.042;14.472;2024-02-21T06:10:33;14.30;;;8.18;;
9821;SDS011;4950;46.042;14.472;2024-02-21T06:12:59;20.00;;;8.27;;
9821;SDS011;4950;46.042;14.472;2024-02-21T06:15:26;18.15;;;8.15;;
9821;SDS011;4950;46.042;14.472;2024-02-21T06:17:53;21.15;;;8.32;;
9821;SDS011;4950;46.042;14.472;2024-02-21T06:20:19;18.60;;;8.82;;
9821;SDS011;4950;46.042;14.472;2024-02-21T06:22:46;19.23;;;8.65;;
9821;SDS011;4950;46.042;14.472;2024-02-21T06:25:14;18.33;;;8.63;;
9821;SDS011;4950;46.042;14.472;2024-02-21T06:27:41;12.13;;;8.23;;
9821;SDS011;4950;46.042;14.472;2024-02-21T06:30:08;19.73;;;9.07;;
9821;SDS011;4950;46.042;14.472;2024-02-21T06:32:35;20.40;;;8.85;;
9821;SDS011;4950;46.042;14.472;2024-02-21T06:35:03;16.20;;;9.93;;
9821;SDS011;4950;46.042;14.472;2024-02-21T06:37:30;14.20;;;8.63;;
9821;SDS011;4950;46.042;14.472;2024-02-21T06:39:57;18.15;;;9.85;;
9821;SDS011;4950;46.042;14.472;2024-02-21T06:42:25;16.52;;;9.80;;
9821;SDS011;4950;46.042;14.472;2024-02-21T06:44:52;15.07;;;9.60;;
9821;SDS011;4950;46.042;14.472;2024-02-21T06:47:19;24.55;;;11.80;;
9821;SDS011;4950;46.042;14.472;2024-02-21T06:49:48;21.30;;;13.15;;
9821;SDS011;4950;46.042;14.472;2024-02-21T06:52:16;20.63;;;14.02;;
9821;SDS011;4950;46.042;14.472;2024-02-21T06:57:11;20.65;;;13.13;;
9821;SDS011;4950;46.042;14.472;2024-02-21T06:59:39;19.05;;;13.23;;
9821;SDS011;4950;46.042;14.472;2024-02-21T07:02:06;22.83;;;13.13;;
9821;SDS011;4950;46.042;14.472;2024-02-21T07:04:33;24.00;;;12.98;;
9821;SDS011;4950;46.042;14.472;2024-02-21T07:07:00;23.42;;;12.98;;
9821;SDS011;4950;46.042;14.472;2024-02-21T07:09:27;21.23;;;13.40;;
9821;SDS011;4950;46.042;14.472;2024-02-21T07:11:56;20.10;;;12.73;;
9821;SDS011;4950;46.042;14.472;2024-02-21T07:14:23;19.70;;;12.63;;
9821;SDS011;4950;46.042;14.472;2024-02-21T07:16:51;17.92;;;12.68;;
9821;SDS011;4950;46.042;14.472;2024-02-21T07:19:18;24.50;;;16.13;;
9821;SDS011;4950;46.042;14.472;2024-02-21T07:21:45;33.42;;;16.50;;
9821;SDS011;4950;46.042;14.472;2024-02-21T07:24:11;21.40;;;14.45;;
9821;SDS011;4950;46.042;14.472;2024-02-21T07:26:40;20.48;;;13.40;;
9821;SDS011;4950;46.042;14.472;2024-02-21T07:29:08;20.20;;;13.68;;
9821;SDS011;4950;46.042;14.472;2024-02-21T07:31:38;21.77;;;12.38;;
9821;SDS011;4950;46.042;14.472;2024-02-21T07:34:07;25.58;;;14.32;;
9821;SDS011;4950;46.042;14.472;2024-02-21T07:36:34;20.40;;;12.25;;
9821;SDS011;4950;46.042;14.472;2024-02-21T07:39:02;26.40;;;12.70;;
9821;SDS011;4950;46.042;14.472;2024-02-21T07:41:29;23.60;;;13.20;;
9821;SDS011;4950;46.042;14.472;2024-02-21T07:43:57;20.70;;;12.95;;
9821;SDS011;4950;46.042;14.472;2024-02-21T07:46:23;19.52;;;12.70;;
9821;SDS011;4950;46.042;14.472;2024-02-21T07:48:50;25.58;;;13.60;;
9821;SDS011;4950;46.042;14.472;2024-02-21T07:51:18;27.92;;;13.88;;
9821;SDS011;4950;46.042;14.472;2024-02-21T07:53:45;29.55;;;15.02;;
9821;SDS011;4950;46.042;14.472;2024-02-21T07:56:12;23.50;;;14.10;;
9821;SDS011;4950;46.042;14.472;2024-02-21T07:58:40;25.90;;;13.52;;
9821;SDS011;4950;46.042;14.472;2024-02-21T08:01:06;27.80;;;13.40;;
9821;SDS011;4950;46.042;14.472;2024-02-21T08:03:33;27.52;;;13.32;;
9821;SDS011;4950;46.042;14.472;2024-02-21T08:06:00;34.20;;;14.57;;
9821;SDS011;4950;46.042;14.472;2024-02-21T08:08:29;29.63;;;14.15;;
9821;SDS011;4950;46.042;14.472;2024-02-21T08:10:55;24.48;;;13.57;;
9821;SDS011;4950;46.042;14.472;2024-02-21T08:13:22;28.88;;;14.55;;
9821;SDS011;4950;46.042;14.472;2024-02-21T08:15:49;29.20;;;14.85;;
9821;SDS011;4950;46.042;14.472;2024-02-21T08:18:15;29.60;;;14.90;;
9821;SDS011;4950;46.042;14.472;2024-02-21T08:20:42;24.05;;;13.77;;
9821;SDS011;4950;46.042;14.472;2024-02-21T08:23:09;23.92;;;13.38;;
9821;SDS011;4950;46.042;14.472;2024-02-21T08:25:37;22.98;;;14.50;;
9821;SDS011;4950;46.042;14.472;2024-02-21T08:28:04;27.00;;;14.35;;
9821;SDS011;4950;46.042;14.472;2024-02-21T08:30:32;28.10;;;13.65;;
9821;SDS011;4950;46.042;14.472;2024-02-21T08:32:59;36.25;;;16.73;;
9821;SDS011;4950;46.042;14.472;2024-02-21T08:35:26;25.83;;;15.07;;
9821;SDS011;4950;46.042;14.472;2024-02-21T08:37:52;22.02;;;14.77;;
9821;SDS011;4950;46.042;14.472;2024-02-21T08:40:19;26.05;;;15.10;;
9821;SDS011;4950;46.042;14.472;2024-02-21T08:42:48;27.98;;;15.50;;
9821;SDS011;4950;46.042;14.472;2024-02-21T08:45:15;23.40;;;14.70;;
9821;SDS011;4950;46.042;14.472;2024-02-21T08:47:42;27.27;;;15.70;;
9821;SDS011;4950;46.042;14.472;2024-02-21T08:50:09;26.75;;;15.23;;
9821;SDS011;4950;46.042;14.472;2024-02-21T08:52:36;26.27;;;15.43;;
9821;SDS011;4950;46.042;14.472;2024-02-21T08:55:03;24.90;;;14.73;;
9821;SDS011;4950;46.042;14.472;2024-02-21T08:57:30;22.75;;;14.52;;
9821;SDS011;4950;46.042;14.472;2024-02-21T09:00:03;27.23;;;14.52;;
9821;SDS011;4950;46.042;14.472;2024-02-21T09:02:34;24.60;;;14.38;;
9821;SDS011;4950;46.042;14.472;2024-02-21T09:05:03;21.05;;;13.48;;
9821;SDS011;4950;46.042;14.472;2024-02-21T09:07:31;29.75;;;14.23;;
9821;SDS011;4950;46.042;14.472;2024-02-21T09:09:57;28.77;;;14.82;;
9821;SDS011;4950;46.042;14.472;2024-02-21T09:12:24;22.65;;;13.40;;
9821;SDS011;4950;46.042;14.472;2024-02-21T09:14:51;24.02;;;13.60;;
9821;SDS011;4950;46.042;14.472;2024-02-21T09:17:19;21.70;;;13.50;;
9821;SDS011;4950;46.042;14.472;2024-02-21T09:19:46;21.10;;;14.47;;
9821;SDS011;4950;46.042;14.472;2024-02-21T09:22:13;30.67;;;15.75;;
9821;SDS011;4950;46.042;14.472;2024-02-21T09:24:40;21.75;;;13.93;;
9821;SDS011;4950;46.042;14.472;2024-02-21T09:27:07;24.42;;;14.30;;
9821;SDS011;4950;46.042;14.472;2024-02-21T09:29:33;27.83;;;14.10;;
9821;SDS011;4950;46.042;14.472;2024-02-21T09:32:01;20.80;;;13.20;;
9821;SDS011;4950;46.042;14.472;2024-02-21T09:34:30;19.65;;;11.57;;
9821;SDS011;4950;46.042;14.472;2024-02-21T09:36:56;19.83;;;12.15;;
9821;SDS011;4950;46.042;14.472;2024-02-21T09:39:23;22.70;;;11.50;;
9821;SDS011;4950;46.042;14.472;2024-02-21T09:41:50;17.27;;;11.05;;
9821;SDS011;4950;46.042;14.472;2024-02-21T09:44:24;22.25;;;11.40;;
9821;SDS011;4950;46.042;14.472;2024-02-21T09:46:59;18.30;;;11.57;;
9821;SDS011;4950;46.042;14.472;2024-02-21T09:49:31;14.65;;;10.30;;
9821;SDS011;4950;46.042;14.472;2024-02-21T09:51:59;19.98;;;10.13;;
9821;SDS011;4950;46.042;14.472;2024-02-21T09:54:28;17.35;;;10.25;;
9821;SDS011;4950;46.042;14.472;2024-02-21T09:56:55;26.45;;;12.00;;
9821;SDS011;4950;46.042;14.472;2024-02-21T09:59:22;21.02;;;12.00;;
9821;SDS011;4950;46.042;14.472;2024-02-21T10:01:50;20.00;;;11.48;;
9821;SDS011;4950;46.042;14.472;2024-02-21T10:04:17;15.90;;;10.07;;
9821;SDS011;4950;46.042;14.472;2024-02-21T10:06:45;14.63;;;9.38;;
9821;SDS011;4950;46.042;14.472;2024-02-21T10:09:19;18.30;;;9.65;;
9821;SDS011;4950;46.042;14.472;2024-02-21T10:11:48;14.32;;;8.85;;
9821;SDS011;4950;46.042;14.472;2024-02-21T10:14:14;17.90;;;10.10;;
9821;SDS011;4950;46.042;14.472;2024-02-21T10:16:42;17.45;;;9.38;;
9821;SDS011;4950;46.042;14.472;2024-02-21T10:19:15;20.25;;;9.85;;
9821;SDS011;4950;46.042;14.472;2024-02-21T10:21:43;14.05;;;8.55;;
9821;SDS011;4950;46.042;14.472;2024-02-21T10:24:11;15.65;;;9.07;;
9821;SDS011;4950;46.042;14.472;2024-02-21T10:26:38;15.43;;;9.27;;
9821;SDS011;4950;46.042;14.472;2024-02-21T10:29:05;17.33;;;9.23;;
9821;SDS011;4950;46.042;14.472;2024-02-21T10:31:31;16.50;;;9.20;;
9821;SDS011;4950;46.042;14.472;2024-02-21T10:33:59;18.98;;;9.00;;
9821;SDS011;4950;46.042;14.472;2024-02-21T10:36:28;14.32;;;8.52;;
9821;SDS011;4950;46.042;14.472;2024-02-21T10:38:55;22.25;;;8.85;;
9821;SDS011;4950;46.042;14.472;2024-02-21T10:41:23;16.50;;;8.80;;
9821;SDS011;4950;46.042;14.472;2024-02-21T10:43:52;15.07;;;8.68;;
9821;SDS011;4950;46.042;14.472;2024-02-21T10:46:20;14.82;;;8.27;;
9821;SDS011;4950;46.042;14.472;2024-02-21T10:48:48;12.40;;;7.93;;
9821;SDS011;4950;46.042;14.472;2024-02-21T10:51:29;12.52;;;8.45;;
9821;SDS011;4950;46.042;14.472;2024-02-21T10:54:02;18.92;;;9.80;;
9821;SDS011;4950;46.042;14.472;2024-02-21T10:56:41;15.70;;;9.10;;
9821;SDS011;4950;46.042;14.472;2024-02-21T10:59:08;18.27;;;8.48;;
9821;SDS011;4950;46.042;14.472;2024-02-21T11:01:35;11.35;;;7.15;;
9821;SDS011;4950;46.042;14.472;2024-02-21T11:04:02;14.88;;;8.63;;
9821;SDS011;4950;46.042;14.472;2024-02-21T11:06:30;15.45;;;7.68;;
9821;SDS011;4950;46.042;14.472;2024-02-21T11:08:59;13.63;;;7.90;;
9821;SDS011;4950;46.042;14.472;2024-02-21T11:11:27;11.27;;;7.38;;
9821;SDS011;4950;46.042;14.472;2024-02-21T11:14:04;11.90;;;7.43;;
9821;SDS011;4950;46.042;14.472;2024-02-21T11:16:35;12.15;;;7.30;;
9821;SDS011;4950;46.042;14.472;2024-02-21T11:19:04;9.80;;;6.95;;
9821;SDS011;4950;46.042;14.472;2024-02-21T11:21:35;16.25;;;7.65;;
9821;SDS011;4950;46.042;14.472;2024-02-21T11:24:02;11.60;;;7.18;;
9821;SDS011;4950;46.042;14.472;2024-02-21T11:26:29;14.05;;;7.47;;
9821;SDS011;4950;46.042;14.472;2024-02-21T11:28:57;11.13;;;6.97;;
9821;SDS011;4950;46.042;14.472;2024-02-21T11:31:26;10.50;;;7.18;;
9821;SDS011;4950;46.042;14.472;2024-02-21T11:33:53;10.75;;;7.43;;
9821;SDS011;4950;46.042;14.472;2024-02-21T11:36:24;15.15;;;6.50;;
9821;SDS011;4950;46.042;14.472;2024-02-21T11:38:51;10.40;;;6.60;;
9821;SDS011;4950;46.042;14.472;2024-02-21T11:41:18;11.68;;;6.40;;
9821;SDS011;4950;46.042;14.472;2024-02-21T11:43:46;12.88;;;7.00;;
9821;SDS011;4950;46.042;14.472;2024-02-21T11:46:13;9.73;;;6.57;;
9821;SDS011;4950;46.042;14.472;2024-02-21T11:48:42;10.20;;;7.00;;
9821;SDS011;4950;46.042;14.472;2024-02-21T11:51:09;10.93;;;7.45;;
9821;SDS011;4950;46.042;14.472;2024-02-21T11:53:36;14.05;;;7.57;;
9821;SDS011;4950;46.042;14.472;2024-02-21T11:56:03;8.80;;;6.22;;
9821;SDS011;4950;46.042;14.472;2024-02-21T11:58:30;10.52;;;7.25;;
9821;SDS011;4950;46.042;14.472;2024-02-21T12:00:57;10.38;;;6.72;;
9821;SDS011;4950;46.042;14.472;2024-02-21T12:03:24;11.57;;;6.68;;
9821;SDS011;4950;46.042;14.472;2024-02-21T12:05:52;11.80;;;6.78;;
9821;SDS011;4950;46.042;14.472;2024-02-21T12:08:21;9.25;;;6.22;;
9821;SDS011;4950;46.042;14.472;2024-02-21T12:10:48;10.27;;;6.60;;
9821;SDS011;4950;46.042;14.472;2024-02-21T12:13:16;9.93;;;7.00;;
9821;SDS011;4950;46.042;14.472;2024-02-21T12:15:47;10.50;;;6.22;;
9821;SDS011;4950;46.042;14.472;2024-02-21T12:18:13;10.68;;;6.03;;
9821;SDS011;4950;46.042;14.472;2024-02-21T12:20:40;10.05;;;6.97;;
9821;SDS011;4950;46.042;14.472;2024-02-21T12:23:10;9.88;;;6.40;;
9821;SDS011;4950;46.042;14.472;2024-02-21T12:25:36;11.07;;;6.82;;
9821;SDS011;4950;46.042;14.472;2024-02-21T12:28:05;12.77;;;6.45;;
9821;SDS011;4950;46.042;14.472;2024-02-21T12:30:32;10.98;;;6.60;;
9821;SDS011;4950;46.042;14.472;2024-02-21T12:33:00;14.48;;;6.72;;
9821;SDS011;4950;46.042;14.472;2024-02-21T12:35:27;16.27;;;6.75;;
9821;SDS011;4950;46.042;14.472;2024-02-21T12:37:56;11.00;;;6.63;;
9821;SDS011;4950;46.042;14.472;2024-02-21T12:40:24;11.38;;;5.90;;
9821;SDS011;4950;46.042;14.472;2024-02-21T12:42:57;9.70;;;5.85;;
9821;SDS011;4950;46.042;14.472;2024-02-21T12:45:24;8.98;;;5.95;;
9821;SDS011;4950;46.042;14.472;2024-02-21T12:47:50;9.85;;;5.68;;
9821;SDS011;4950;46.042;14.472;2024-02-21T12:50:17;9.75;;;5.55;;
9821;SDS011;4950;46.042;14.472;2024-02-21T12:52:44;12.68;;;7.55;;
9821;SDS011;4950;46.042;14.472;2024-02-21T12:55:11;9.02;;;6.18;;
9821;SDS011;4950;46.042;14.472;2024-02-21T12:57:40;8.27;;;5.18;;
9821;SDS011;4950;46.042;14.472;2024-02-21T13:00:07;11.23;;;5.40;;
9821;SDS011;4950;46.042;14.472;2024-02-21T13:02:36;11.27;;;6.05;;
9821;SDS011;4950;46.042;14.472;2024-02-21T13:05:03;7.35;;;5.13;;
9821;SDS011;4950;46.042;14.472;2024-02-21T13:07:30;9.68;;;5.10;;
9821;SDS011;4950;46.042;14.472;2024-02-21T13:09:57;8.88;;;5.68;;
9821;SDS011;4950;46.042;14.472;2024-02-21T13:12:24;7.18;;;5.20;;
9821;SDS011;4950;46.042;14.472;2024-02-21T13:14:54;9.40;;;5.83;;
9821;SDS011;4950;46.042;14.472;2024-02-21T13:17:20;7.67;;;5.13;;
9821;SDS011;4950;46.042;14.472;2024-02-21T13:19:48;9.98;;;5.53;;
9821;SDS011;4950;46.042;14.472;2024-02-21T13:22:14;14.18;;;10.35;;
9821;SDS011;4950;46.042;14.472;2024-02-21T13:24:41;12.88;;;6.65;;
9821;SDS011;4950;46.042;14.472;2024-02-21T13:27:08;9.57;;;5.32;;
9821;SDS011;4950;46.042;14.472;2024-02-21T13:29:34;16.55;;;10.95;;
9821;SDS011;4950;46.042;14.472;2024-02-21T13:32:02;21.88;;;13.18;;
9821;SDS011;4950;46.042;14.472;2024-02-21T13:34:31;10.88;;;5.45;;
9821;SDS011;4950;46.042;14.472;2024-02-21T13:36:57;17.15;;;11.60;;
9821;SDS011;4950;46.042;14.472;2024-02-21T13:39:25;11.63;;;7.78;;
9821;SDS011;4950;46.042;14.472;2024-02-21T13:41:51;11.07;;;6.63;;
9821;SDS011;4950;46.042;14.472;2024-02-21T13:44:18;10.35;;;5.68;;
9821;SDS011;4950;46.042;14.472;2024-02-21T13:46:45;7.88;;;3.90;;
9821;SDS011;4950;46.042;14.472;2024-02-21T13:49:13;13.07;;;6.30;;
9821;SDS011;4950;46.042;14.472;2024-02-21T13:51:40;13.07;;;5.82;;
9821;SDS011;4950;46.042;14.472;2024-02-21T13:56:36;4.55;;;3.05;;
9821;SDS011;4950;46.042;14.472;2024-02-21T13:59:03;4.68;;;3.15;;
9821;SDS011;4950;46.042;14.472;2024-02-21T14:01:30;6.60;;;3.30;;
9821;SDS011;4950;46.042;14.472;2024-02-21T14:03:57;9.07;;;3.58;;
9821;SDS011;4950;46.042;14.472;2024-02-21T14:06:25;6.25;;;2.88;;
9821;SDS011;4950;46.042;14.472;2024-02-21T14:08:52;9.13;;;3.42;;
9821;SDS011;4950;46.042;14.472;2024-02-21T14:11:18;6.22;;;2.78;;
9821;SDS011;4950;46.042;14.472;2024-02-21T14:13:45;4.80;;;2.63;;
9821;SDS011;4950;46.042;14.472;2024-02-21T14:16:11;4.20;;;2.70;;
9821;SDS011;4950;46.042;14.472;2024-02-21T14:18:39;5.28;;;2.20;;
9821;SDS011;4950;46.042;14.472;2024-02-21T14:21:07;8.20;;;2.90;;
9821;SDS011;4950;46.042;14.472;2024-02-21T14:23:37;14.25;;;3.33;;
9821;SDS011;4950;46.042;14.472;2024-02-21T14:26:03;5.37;;;2.53;;
9821;SDS011;4950;46.042;14.472;2024-02-21T14:28:31;6.57;;;2.85;;
9821;SDS011;4950;46.042;14.472;2024-02-21T14:30:58;5.65;;;2.47;;
9821;SDS011;4950;46.042;14.472;2024-02-21T14:33:25;6.05;;;2.58;;
9821;SDS011;4950;46.042;14.472;2024-02-21T14:35:52;4.18;;;2.40;;
9821;SDS011;4950;46.042;14.472;2024-02-21T14:38:19;3.28;;;2.17;;
9821;SDS011;4950;46.042;14.472;2024-02-21T14:40:47;14.27;;;7.70;;
9821;SDS011;4950;46.042;14.472;2024-02-21T14:43:14;4.70;;;3.20;;
9821;SDS011;4950;46.042;14.472;2024-02-21T14:45:40;7.90;;;3.60;;
9821;SDS011;4950;46.042;14.472;2024-02-21T14:48:08;3.55;;;2.60;;
9821;SDS011;4950;46.042;14.472;2024-02-21T14:50:34;5.95;;;2.45;;
9821;SDS011;4950;46.042;14.472;2024-02-21T14:53:01;4.90;;;2.35;;